Latest Weather Observations for Julia Creek

IDQ60801

Issued at 8:32 am EST Tuesday 24 October 2017 (issued every 30 minutes, with the page automatically refreshed every 10 minutes)

About weather observations | Map of weather stations | Latest weather observations for QLD | Other Formats
Station Details ID: 029058 Name: JULIA CREEK AIRPORT Lat: -20.67 Lon: 141.72 Height: 122.5 m
Data from the previous 72 hours. | See also: Recent months at Julia Creek
Date/Time
EST
Temp
°C
App
Temp
°C
Dew
Point
°C
Rel
Hum
%
Delta-T
°C
Wind Press
QNH
hPa
Press
MSL
hPa
Rain since
9am
mm
Dir  Spd
km/h
Gust
km/h
Spd
kts
Gust
kts
24/08:30am 25.9 20.5 1.2 20 11.7 ESE 19 24 10 13 1016.6 1015.9 0.0
24/08:00am 23.3 17.8 0.4 22 10.5 ESE 19 24 10 13 1016.3 1015.6 0.0
24/07:30am 21.8 16.7 0.9 25 9.6 SE 17 22 9 12 1016.0 1015.2 0.0
24/07:00am 18.8 13.9 -0.6 27 8.4 SE 15 19 8 10 1015.5 1014.7 0.0
24/06:30am 14.6 10.2 -2.3 31 6.8 SE 11 13 6 7 1015.1 1014.3 0.0
24/06:00am 13.2 8.3 -3.1 32 6.3 SE 13 15 7 8 1014.6 1013.8 0.0
24/05:30am 12.9 7.5 -4.2 30 6.5 SE 15 17 8 9 1014.5 1013.7 0.0
24/05:00am 13.5 8.5 -4.6 28 6.8 SSE 13 13 7 7 1014.3 1013.5 0.0
24/04:30am 13.7 9.0 -4.9 27 7.0 SSE 11 11 6 6 1013.8 1013.1 0.0
24/04:00am 14.5 9.1 -4.7 26 7.3 SSE 15 15 8 8 1013.4 1012.7 0.0
24/03:30am 16.4 11.3 -4.8 23 8.2 SSE 13 15 7 8 1013.2 1012.5 0.0
24/03:00am 18.7 12.9 -4.7 20 9.3 SSE 17 20 9 11 1013.1 1012.4 0.0
24/02:30am 19.0 12.8 -4.4 20 9.4 SSE 19 22 10 12 1013.0 1012.3 0.0
24/02:00am 17.5 11.7 -4.4 22 8.7 SSE 17 19 9 10 1013.2 1012.5 0.0
24/01:30am 19.2 13.4 -5.0 19 9.6 SSE 17 20 9 11 1013.1 1012.4 0.0
24/01:00am 19.9 14.1 -5.1 18 10.0 SSE 17 20 9 11 1013.2 1012.5 0.0
24/12:30am 20.2 13.9 -5.6 17 10.3 SSE 19 20 10 11 1013.4 1012.7 0.0
24/12:00am 19.1 12.8 -5.7 18 9.7 S 19 20 10 11 1013.4 1012.7 0.0
 
Date/Time
EST
Temp
°C
App
Temp
°C
Dew
Point
°C
Rel
Hum
%
Delta-T
°C
Wind Press
QNH
hPa
Press
MSL
hPa
Rain since
9am
mm
Dir  Spd
km/h
Gust
km/h
Spd
kts
Gust
kts
23/11:30pm 18.4 12.4 -6.3 18 9.5 S 17 17 9 9 1013.6 1012.9 0.0
23/11:00pm 19.6 13.6 -6.9 16 10.2 SSW 17 20 9 11 1013.7 1013.0 0.0
23/10:30pm 19.3 13.3 -6.3 17 9.9 SE 17 20 9 11 1013.5 1012.8 0.0
23/10:00pm 19.8 13.7 -7.5 15 10.4 SE 17 19 9 10 1013.3 1012.6 0.0
23/09:30pm 20.9 14.9 -6.7 15 10.8 S 17 19 9 10 1013.0 1012.3 0.0
23/09:00pm 21.1 15.8 -7.4 14 11.0 SSE 13 13 7 7 1012.8 1012.1 0.0
23/08:30pm 22.7 17.8 -7.1 13 11.8 SSE 11 11 6 6 1012.6 1011.9 0.0
23/08:00pm 23.3 17.6 -7.7 12 12.2 SSE 15 15 8 8 1012.2 1011.5 0.0
23/07:30pm 25.1 19.0 -7.4 11 13.1 SSE 17 17 9 9 1012.1 1011.4 0.0
23/07:00pm 26.7 20.9 -8.8 9 14.2 SE 15 17 8 9 - - 0.0
23/06:30pm 30.1 24.0 -7.7 8 15.9 SSE 17 22 9 12 - - 0.0
23/06:00pm 32.2 26.1 -7.9 7 17.1 SSE 17 22 9 12 - - 0.0
23/05:30pm 33.0 27.9 -5.6 8 17.2 SE 13 20 7 11 - - 0.0
23/05:00pm 33.4 27.7 -7.0 7 17.7 SSE 15 20 8 11 - - 0.0
23/04:30pm 33.4 27.4 -7.0 7 17.7 S 17 26 9 14 - - 0.0
23/04:00pm 33.5 29.0 -7.0 7 17.7 SSE 9 19 5 10 - - 0.0
23/03:30pm 33.7 27.5 -5.1 8 17.6 SE 19 32 10 17 - - 0.0
23/03:00pm 33.7 28.2 -5.1 8 17.6 SSW 15 28 8 15 - - 0.0
23/02:30pm 33.2 28.8 -5.5 8 17.3 SE 9 19 5 10 - - 0.0
23/02:00pm 32.5 26.9 -6.0 8 17.0 S 15 28 8 15 - - 0.0
23/01:30pm 32.4 26.2 -4.5 9 16.7 SSE 19 43 10 23 - - 0.0
23/01:00pm 32.2 27.5 -4.6 9 16.6 SE 11 24 6 13 1012.8 1012.1 0.0
23/12:30pm 31.5 25.4 -3.8 10 16.1 S 19 30 10 16 1013.3 1012.6 0.0
23/12:00pm 32.7 26.5 -2.9 10 16.6 SSE 20 30 11 16 1014.0 1013.2 0.0
23/11:30am 30.6 24.8 -4.4 10 15.6 SSE 17 30 9 16 1014.4 1013.6 0.0
23/11:00am 31.2 25.2 -1.5 12 15.4 SSE 20 33 11 18 1014.8 1014.0 0.0
23/10:30am 30.0 23.3 -1.4 13 14.7 SSE 24 32 13 17 1015.4 1014.6 0.0
23/10:00am 29.1 21.6 -1.1 14 14.1 SE 28 39 15 21 1015.5 1014.7 0.0
23/09:30am 28.5 20.7 -0.6 15 13.7 ESE 30 41 16 22 1015.7 1014.9 0.0
23/09:00am 27.3 19.1 -0.7 16 13.0 ESE 32 41 17 22 1015.6 1014.8 0.0
23/08:30am 26.0 18.2 -0.9 17 12.3 SE 30 39 16 21 1015.4 1014.6 0.0
23/08:00am 24.4 16.6 -0.7 19 11.4 SE 30 37 16 20 1015.2 1014.4 0.0
23/07:30am 21.9 15.7 -0.1 23 9.9 SSE 22 28 12 15 1014.7 1013.9 0.0
23/07:00am 18.5 13.2 -0.8 27 8.3 SSE 17 22 9 12 1014.4 1013.6 0.0
23/06:30am 15.7 10.2 -1.8 30 7.2 SSE 17 20 9 11 1014.1 1013.3 0.0
23/06:00am 15.1 9.6 -1.9 31 6.9 S 17 20 9 11 1013.6 1012.9 0.0
23/05:30am 15.9 9.8 -2.1 29 7.4 S 20 24 11 13 1013.2 1012.5 0.0
23/05:00am 16.5 10.4 -2.0 28 7.6 S 20 26 11 14 1013.1 1012.4 0.0
23/04:30am 15.5 10.0 -2.4 29 7.3 S 17 20 9 11 1013.0 1012.3 0.0
23/04:00am 15.6 10.1 -2.3 29 7.3 S 17 20 9 11 1012.7 1012.0 0.0
23/03:30am 14.3 9.1 -3.0 30 6.8 S 15 17 8 9 1012.5 1011.8 0.0
23/03:00am 16.9 11.7 -2.7 26 8.0 S 15 17 8 9 1012.6 1011.9 0.0
23/02:30am 18.4 12.8 -2.5 24 8.7 S 17 20 9 11 1012.7 1012.0 0.0
23/02:00am 19.8 13.7 -2.5 22 9.4 S 20 24 11 13 1012.8 1012.1 0.0
23/01:30am 20.7 14.1 -3.0 20 10.0 S 22 28 12 15 1012.8 1012.1 0.0
23/01:00am 20.8 13.8 -3.6 19 10.2 S 24 28 13 15 1012.8 1012.1 0.0
23/12:30am 21.8 14.7 -4.3 17 10.8 S 24 30 13 16 1012.9 1012.2 0.0
23/12:00am 21.8 14.6 -5.1 16 11.0 S 24 30 13 16 1013.1 1012.4 0.0
 
Date/Time
EST
Temp
°C
App
Temp
°C
Dew
Point
°C
Rel
Hum
%
Delta-T
°C
Wind Press
QNH
hPa
Press
MSL
hPa
Rain since
9am
mm
Dir  Spd
km/h
Gust
km/h
Spd
kts
Gust
kts
22/11:30pm 18.9 12.9 -6.7 17 9.8 SSE 17 17 9 9 1013.1 1012.4 0.0
22/11:00pm 22.0 15.4 -6.7 14 11.4 S 20 22 11 12 1013.2 1012.5 0.0
22/10:30pm 22.2 15.5 -7.5 13 11.6 S 20 24 11 13 1013.2 1012.5 0.0
22/10:00pm 23.4 16.4 -7.6 12 12.2 S 22 26 12 14 1013.1 1012.4 0.0
22/09:30pm 22.9 16.3 -6.9 13 11.9 S 20 24 11 13 1013.0 1012.3 0.0
22/09:00pm 22.3 15.9 -6.5 14 11.5 SSW 19 22 10 12 1012.7 1012.0 0.0
22/08:30pm 22.6 16.1 -8.2 12 11.9 SSW 19 19 10 10 1012.5 1011.8 0.0
22/08:00pm 25.6 19.1 -8.2 10 13.5 S 19 22 10 12 1012.0 1011.3 0.0
22/07:30pm 27.4 20.3 -8.2 9 14.5 SSW 22 26 12 14 1011.6 1010.9 0.0
22/07:00pm 27.6 21.1 -8.1 9 14.6 S 19 20 10 11 - - 0.0
22/06:30pm 30.5 24.0 -5.9 9 15.8 S 20 32 11 17 1010.7 1010.0 0.0
22/06:00pm 32.1 25.2 -6.3 8 16.8 S 22 28 12 15 1010.4 1009.7 0.0
22/05:30pm 32.7 25.4 -5.8 8 17.1 S 24 35 13 19 1010.0 1009.3 0.0
22/05:00pm 33.4 27.0 -5.3 8 17.4 SSW 20 30 11 16 1009.9 1009.2 0.0
22/04:30pm 33.2 26.5 -3.9 9 17.1 S 22 32 12 17 1009.8 1009.1 0.0
22/04:00pm 33.9 26.5 -3.4 9 17.4 SSW 26 33 14 18 1009.9 1009.2 0.0
22/03:30pm 33.3 26.4 -2.4 10 16.8 SSE 24 37 13 20 1010.2 1009.5 0.0
22/03:00pm 33.0 25.5 -1.4 11 16.5 S 28 39 15 21 1010.6 1009.9 0.0
22/02:30pm 33.9 28.8 0.5 12 16.6 S 17 32 9 17 1010.6 1009.9 0.0
22/02:00pm 32.1 27.3 0.2 13 15.6 SSE 15 30 8 16 1011.1 1010.4 0.0
22/01:30pm 33.0 27.2 -0.2 12 16.2 SSE 20 35 11 19 1011.7 1011.0 0.0
22/01:00pm 32.4 26.7 -0.6 12 16.0 S 19 30 10 16 1012.1 1011.4 0.0
22/12:30pm 31.2 25.4 2.4 16 14.5 SSE 22 33 12 18 1012.9 1012.2 0.0
22/12:00pm 31.2 26.7 2.4 16 14.5 SE 15 22 8 12 1013.5 1012.8 0.0
22/11:30am 30.1 25.3 2.4 17 13.9 S 17 24 9 13 1014.2 1013.4 0.0
22/11:00am 29.5 25.0 4.2 20 13.0 SE 17 24 9 13 1014.7 1013.9 0.0
22/10:30am 28.9 24.0 5.1 22 12.4 SSE 20 32 11 17 1015.1 1014.3 0.0
22/10:00am 27.9 22.2 4.9 23 11.8 SSE 24 35 13 19 1015.4 1014.6 0.0
22/09:30am 27.2 21.5 4.9 24 11.4 SE 24 32 13 17 1015.5 1014.7 0.0
22/09:00am 26.1 19.6 4.6 25 10.9 SSE 28 35 15 19 1015.4 1014.6 -
22/08:30am 24.9 18.3 4.1 26 10.4 SE 28 39 15 21 1015.2 1014.4 -
22/08:00am 23.5 16.5 4.0 28 9.6 SE 30 39 16 21 1014.8 1014.0 -
22/07:30am 22.1 16.8 5.1 33 8.5 SSE 22 32 12 17 1014.5 1013.7 -
22/07:00am 20.0 15.2 5.6 39 7.1 SSE 20 26 11 14 1014.3 1013.5 -
22/06:30am 17.9 14.0 7.3 50 5.4 SSE 17 20 9 11 1014.0 1013.2 -
22/06:00am 17.1 13.3 7.5 53 4.8 SSE 17 19 9 10 1014.0 1013.2 -
22/05:30am 18.3 14.2 7.7 50 5.4 SSE 19 24 10 13 1013.7 1013.0 -
22/05:00am 18.9 14.5 8.8 52 5.3 SSE 22 26 12 14 1013.5 1012.8 -
22/04:30am 19.8 15.3 10.2 54 5.2 SSE 24 30 13 16 1013.2 1012.5 -
22/04:00am 19.7 17.2 13.6 68 3.5 S 19 24 10 13 1012.8 1012.1 -
22/03:30am 18.2 15.9 12.9 71 3.0 S 17 20 9 11 1012.5 1011.8 -
22/03:00am 18.1 16.6 13.2 73 2.8 SSW 13 15 7 8 1012.6 1011.9 0.0
22/02:30am 19.1 18.8 14.4 74 2.7 SSW 9 13 5 7 1012.8 1012.1 -
22/02:00am 19.7 18.9 15.1 75 2.7 SSW 13 15 7 8 1013.2 1012.5 -
22/01:30am 21.2 20.4 16.2 73 3.0 SSW 15 19 8 10 1013.4 1012.7 -
22/01:00am 20.9 20.5 16.1 74 2.9 S 13 15 7 8 1013.4 1012.7 -
22/12:30am 21.6 20.2 16.6 73 3.1 SSW 19 33 10 18 1013.8 1013.1 -
22/12:00am 20.4 19.8 14.7 70 3.4 ESE 11 13 6 7 1013.4 1012.7 -
 
Date/Time
EST
Temp
°C
App
Temp
°C
Dew
Point
°C
Rel
Hum
%
Delta-T
°C
Wind Press
QNH
hPa
Press
MSL
hPa
Rain since
9am
mm
Dir  Spd
km/h
Gust
km/h
Spd
kts
Gust
kts
21/11:30pm 20.7 19.8 14.8 69 3.5 ESE 13 15 7 8 1013.7 1013.0 -
21/11:00pm 21.1 20.1 14.7 67 3.8 ESE 13 13 7 7 1013.8 1013.1 -
21/10:30pm 21.6 20.6 14.5 64 4.2 ESE 13 13 7 7 1014.1 1013.3 -
21/10:00pm 22.3 21.7 14.7 62 4.5 ESE 11 13 6 7 1014.0 1013.2 -
21/09:30pm 23.2 23.3 15.5 62 4.6 ESE 9 11 5 6 1014.0 1013.2 -
21/09:00pm 23.1 22.7 14.1 57 5.3 ESE 9 11 5 6 1013.5 1012.8 0.0
21/08:30pm 24.3 23.9 15.2 57 5.5 ESE 11 13 6 7 1013.2 1012.5 -
21/08:00pm 25.4 24.7 15.4 54 6.1 E 13 17 7 9 1013.1 1012.4 -
21/07:30pm 26.5 26.0 15.8 51 6.6 E 13 17 7 9 1012.7 1012.0 -
21/07:00pm 27.3 26.3 15.7 49 7.1 ESE 15 19 8 10 1012.4 1011.7 -
21/06:30pm 28.4 26.5 15.7 46 7.8 ESE 20 28 11 15 1012.0 1011.3 -
21/06:00pm 29.5 26.2 14.1 39 9.3 SE 24 32 13 17 1011.9 1011.2 -
21/05:30pm 30.5 26.7 13.7 35 10.1 SSE 26 33 14 18 1011.7 1011.0 -
21/05:00pm 30.8 26.9 14.4 36 10.0 SE 28 41 15 22 1011.7 1011.0 -
21/04:30pm 30.5 27.0 14.6 38 9.7 SSE 26 41 14 22 1011.8 1011.1 -
21/04:00pm 29.9 25.4 14.8 39 9.3 SSE 32 41 17 22 1012.0 1011.3 -
21/03:30pm 29.6 25.5 15.0 41 9.0 SE 30 41 16 22 1012.3 1011.6 -
21/03:00pm 30.9 26.4 14.9 37 9.9 SSE 32 43 17 23 1012.6 1011.9 -
21/02:30pm 30.4 25.9 15.3 40 9.3 SSE 33 43 18 23 1013.0 1012.3 -
21/02:00pm 31.4 27.2 15.8 39 9.7 SSE 32 43 17 23 1013.4 1012.7 -
21/01:30pm 29.7 25.9 15.8 43 8.6 SE 30 39 16 21 1014.3 1013.5 0.0
21/01:00pm 28.4 25.6 16.3 47 7.5 SSE 26 35 14 19 1015.1 1014.3 0.0
21/12:30pm 27.8 24.1 16.1 49 7.3 SSE 30 39 16 21 1015.5 1014.7 0.0
21/12:00pm 28.5 24.6 16.4 48 7.5 SE 32 43 17 23 1015.8 1015.0 0.0
21/11:30am 27.4 23.6 16.7 52 6.7 SSE 32 41 17 22 1016.3 1015.6 0.0
21/11:00am 26.6 23.0 16.2 52 6.4 SSE 30 39 16 21 1016.7 1016.0 0.0
21/10:30am 28.0 24.3 16.9 51 7.0 SSE 32 44 17 24 1016.9 1016.2 0.0
21/10:00am 26.0 22.8 16.3 55 6.0 SE 28 37 15 20 1017.1 1016.4 0.0
21/09:30am 25.2 21.3 16.4 58 5.4 SSE 32 39 17 21 1017.3 1016.6 0.0
21/09:00am 24.7 20.6 16.4 60 5.1 SE 33 43 18 23 1017.2 1016.5 0.0

Other Formats:

Comma delimited format used in spreadsheet applications
http://www.bom.gov.au/fwo/IDQ60801/IDQ60801.94337.axf

JavaScript Object Notation format (JSON) in row-major order
http://www.bom.gov.au/fwo/IDQ60801/IDQ60801.94337.json